KMKT 251026Z 2510/2606 19005KT 5SM BR OVC020
FM251400 30007KT 2SM -SN BR OVC008
FM260200 32015G24KT 4SM -SN BR OVC009
From batch tds/tafs/production/2023/1/25/h10_m29_tafs.cache.xml
Issued (10 days ago)
Forecasts
2510/2514 19005KT 5.0SM OVC2000

---
wx_string: BR
fcst_time_to: '2023-01-25T14:00:00Z'
sky_condition:
- sky_cover: OVC
  cloud_base_ft_agl: '2000'
wind_speed_kt: '5'
fcst_time_from: '2023-01-25T10:00:00Z'
wind_dir_degrees: '190'
visibility_statute_mi: '5.0'

FM251400 30007KT 2.0SM OVC800

---
wx_string: "-SN BR"
fcst_time_to: '2023-01-26T02:00:00Z'
sky_condition:
- sky_cover: OVC
  cloud_base_ft_agl: '800'
wind_speed_kt: '7'
fcst_time_from: '2023-01-25T14:00:00Z'
change_indicator: FM
wind_dir_degrees: '300'
visibility_statute_mi: '2.0'

FM260200 32015G24KT 4.0SM OVC900

---
wx_string: "-SN BR"
fcst_time_to: '2023-01-26T06:00:00Z'
wind_gust_kt: '24'
sky_condition:
- sky_cover: OVC
  cloud_base_ft_agl: '900'
wind_speed_kt: '15'
fcst_time_from: '2023-01-26T02:00:00Z'
change_indicator: FM
wind_dir_degrees: '320'
visibility_statute_mi: '4.0'

talk